Terminal Aerodrome Forecast
Issued by NWS Sterling, VA

Current Version | Previous Version | Graphics & Text | Print | Product List | Glossary On
Versions: 1 2 3 4 5 6 7 8 9 10 11 12 13 14 15 16 17 18 19 20 21 22 23 24 25 26 27
000
FTUS41 KLWX 142000 AAA
TAFIAD
TAF AMD
KIAD 142043Z 1421/1524 20016G23KT P6SM FEW030 SCT060 OVC200
     FM142300 18013G20KT P6SM BKN080
     FM150600 18012G21KT P6SM -SHRA OVC015
     FM150900 17012G23KT 6SM -SHRA OVC010
     FM151300 19015G27KT 6SM -SHRA OVC015
     FM151500 26011G21KT 6SM -SHRA OVC015
     FM151800 29010G20KT 6SM -SHRA OVC015
     FM152100 32016G28KT P6SM -SHRA OVC025=

USA.gov is the U.S. government's official web portal to all federal, state and local government web resources and services.